QTR1125 OOMS-OTHH
Flight info
| Callsign | QTR1125 |
|---|---|
| Flight time | 1h 7m |
| Altitude | 32000 |
| Route | MCT N718 ITRAX P899 TOVOX |
| Aircraft | A359/H-SDE2E3GHIJ3J4J5LM1ORWXY/LB1D1 |
Departure
| Time | 2026-05-05 11:53 |
|---|---|
| Airport | Muscat International Airport (OOMS) |
Arrival
| Time | 2026-05-05 13:00 |
|---|---|
| Airport | Hamad International Airport (OTHH) |
| Time | Latitude | Longitude | Altitude | Speed | Heading |
|---|---|---|---|---|---|
| 2026-05-05 11:29 | 23.59950 | 58.28131 | 48 ft | 0 kts | 355° |
| 2026-05-05 11:42 | 23.59935 | 58.28133 | 46 ft | 4 kts | 355° |
| 2026-05-05 11:42 | 23.59908 | 58.28135 | 47 ft | 4 kts | 355° |
| 2026-05-05 11:42 | 23.59881 | 58.28138 | 46 ft | 3 kts | 355° |
| 2026-05-05 11:43 | 23.59859 | 58.28143 | 45 ft | 4 kts | 314° |
| 2026-05-05 11:43 | 23.59852 | 58.28165 | 44 ft | 4 kts | 264° |
| 2026-05-05 11:43 | 23.59854 | 58.28183 | 44 ft | 0 kts | 265° |
| 2026-05-05 11:46 | 23.59854 | 58.28180 | 44 ft | 2 kts | 266° |
| 2026-05-05 11:46 | 23.59852 | 58.28131 | 45 ft | 11 kts | 264° |
| 2026-05-05 11:47 | 23.59840 | 58.28017 | 45 ft | 19 kts | 264° |
| 2026-05-05 11:47 | 23.59817 | 58.27936 | 50 ft | 20 kts | 237° |
| 2026-05-05 11:47 | 23.59734 | 58.27852 | 45 ft | 22 kts | 215° |
| 2026-05-05 11:47 | 23.59618 | 58.27746 | 46 ft | 19 kts | 220° |
| 2026-05-05 11:48 | 23.59444 | 58.27540 | 49 ft | 20 kts | 262° |
| 2026-05-05 11:48 | 23.59431 | 58.27379 | 48 ft | 22 kts | 269° |
| 2026-05-05 11:48 | 23.59502 | 58.27234 | 49 ft | 22 kts | 282° |
| 2026-05-05 11:49 | 23.59491 | 58.27060 | 51 ft | 24 kts | 265° |
| 2026-05-05 11:49 | 23.59477 | 58.26865 | 46 ft | 27 kts | 265° |
| 2026-05-05 11:49 | 23.59459 | 58.26653 | 51 ft | 29 kts | 264° |
| 2026-05-05 11:49 | 23.59442 | 58.26473 | 49 ft | 16 kts | 255° |
| 2026-05-05 11:50 | 23.59457 | 58.26384 | 48 ft | 12 kts | 351° |
| 2026-05-05 11:50 | 23.59470 | 58.26433 | 46 ft | 8 kts | 123° |
| 2026-05-05 11:50 | 23.59452 | 58.26500 | 49 ft | 10 kts | 94° |
| 2026-05-05 11:50 | 23.59453 | 58.26589 | 51 ft | 13 kts | 85° |
| 2026-05-05 11:51 | 23.59412 | 58.26667 | 45 ft | 13 kts | 158° |
| 2026-05-05 11:51 | 23.59311 | 58.26685 | 45 ft | 16 kts | 175° |
| 2026-05-05 11:51 | 23.59198 | 58.26704 | 45 ft | 14 kts | 147° |
| 2026-05-05 11:51 | 23.59177 | 58.26788 | 49 ft | 9 kts | 87° |
| 2026-05-05 11:52 | 23.59177 | 58.26792 | 48 ft | 0 kts | 87° |
| 2026-05-05 11:52 | 23.59196 | 58.27036 | 47 ft | 71 kts | 85° |
| 2026-05-05 11:52 | 23.59261 | 58.27832 | 45 ft | 139 kts | 84° |
| 2026-05-05 11:52 | 23.59345 | 58.29039 | 413 ft | 167 kts | 90° |
| 2026-05-05 11:53 | 23.59336 | 58.30285 | 1300 ft | 161 kts | 95° |
| 2026-05-05 11:53 | 23.59089 | 58.31504 | 1753 ft | 176 kts | 118° |
| 2026-05-05 11:53 | 23.58022 | 58.32294 | 2004 ft | 207 kts | 165° |
| 2026-05-05 11:53 | 23.56547 | 58.32014 | 2360 ft | 232 kts | 208° |
| 2026-05-05 11:54 | 23.55436 | 58.30644 | 2697 ft | 257 kts | 247° |
| 2026-05-05 11:54 | 23.55284 | 58.28685 | 3308 ft | 267 kts | 283° |
| 2026-05-05 11:54 | 23.56172 | 58.26932 | 3917 ft | 275 kts | 317° |
| 2026-05-05 11:54 | 23.57848 | 58.25958 | 4586 ft | 277 kts | 352° |
| 2026-05-05 11:55 | 23.59773 | 58.25797 | 5282 ft | 282 kts | 356° |
| 2026-05-05 11:55 | 23.61698 | 58.25228 | 5913 ft | 291 kts | 334° |
| 2026-05-05 11:55 | 23.63297 | 58.23908 | 6732 ft | 289 kts | 308° |
| 2026-05-05 11:55 | 23.64166 | 58.21966 | 7478 ft | 286 kts | 279° |
| 2026-05-05 11:56 | 23.64295 | 58.19830 | 8329 ft | 283 kts | 263° |
| 2026-05-05 11:56 | 23.63905 | 58.17739 | 9151 ft | 283 kts | 250° |
| 2026-05-05 11:56 | 23.63259 | 58.15691 | 9932 ft | 287 kts | 248° |
| 2026-05-05 11:56 | 23.62569 | 58.13608 | 10543 ft | 300 kts | 247° |
| 2026-05-05 11:57 | 23.61880 | 58.11383 | 10948 ft | 320 kts | 251° |
| 2026-05-05 11:57 | 23.61238 | 58.08990 | 11366 ft | 336 kts | 253° |
| 2026-05-05 11:57 | 23.60681 | 58.06465 | 11856 ft | 349 kts | 258° |
| 2026-05-05 11:57 | 23.60281 | 58.03822 | 12483 ft | 357 kts | 262° |
| 2026-05-05 11:58 | 23.60026 | 58.01104 | 13077 ft | 364 kts | 264° |
| 2026-05-05 11:58 | 23.59890 | 57.98367 | 13706 ft | 368 kts | 268° |
| 2026-05-05 11:58 | 23.59924 | 57.95563 | 14335 ft | 370 kts | 273° |
| 2026-05-05 11:58 | 23.60110 | 57.92763 | 15096 ft | 369 kts | 273° |
| 2026-05-05 11:59 | 23.60117 | 57.89945 | 15790 ft | 373 kts | 267° |
| 2026-05-05 11:59 | 23.59822 | 57.87132 | 16422 ft | 377 kts | 261° |
| 2026-05-05 11:59 | 23.59418 | 57.84273 | 17026 ft | 381 kts | 263° |
| 2026-05-05 11:59 | 23.59163 | 57.81431 | 17724 ft | 382 kts | 266° |
| 2026-05-05 12:00 | 23.58980 | 57.78542 | 18383 ft | 384 kts | 267° |
| 2026-05-05 12:00 | 23.58859 | 57.75605 | 18956 ft | 387 kts | 269° |
| 2026-05-05 12:00 | 23.58799 | 57.72659 | 19534 ft | 391 kts | 269° |
| 2026-05-05 12:00 | 23.58777 | 57.69672 | 20052 ft | 395 kts | 270° |
| 2026-05-05 12:01 | 23.58778 | 57.66688 | 20663 ft | 397 kts | 270° |
| 2026-05-05 12:01 | 23.58787 | 57.63663 | 21318 ft | 398 kts | 270° |
| 2026-05-05 12:01 | 23.58794 | 57.60624 | 21804 ft | 404 kts | 269° |
| 2026-05-05 12:01 | 23.58799 | 57.57544 | 22336 ft | 408 kts | 269° |
| 2026-05-05 12:02 | 23.58800 | 57.54439 | 22851 ft | 411 kts | 269° |
| 2026-05-05 12:02 | 23.58797 | 57.51313 | 23385 ft | 414 kts | 269° |
| 2026-05-05 12:02 | 23.58793 | 57.48169 | 23843 ft | 417 kts | 269° |
| 2026-05-05 12:02 | 23.58788 | 57.45008 | 24270 ft | 420 kts | 269° |
| 2026-05-05 12:03 | 23.58782 | 57.41807 | 24755 ft | 422 kts | 269° |
| 2026-05-05 12:03 | 23.58775 | 57.38609 | 25276 ft | 424 kts | 269° |
| 2026-05-05 12:03 | 23.58882 | 57.35376 | 25800 ft | 427 kts | 274° |
| 2026-05-05 12:03 | 23.59431 | 57.32187 | 26318 ft | 429 kts | 284° |
| 2026-05-05 12:04 | 23.60376 | 57.29142 | 26871 ft | 431 kts | 289° |
| 2026-05-05 12:04 | 23.61505 | 57.26104 | 27415 ft | 434 kts | 291° |
| 2026-05-05 12:04 | 23.62750 | 57.23041 | 27937 ft | 437 kts | 292° |
| 2026-05-05 12:04 | 23.64003 | 57.20070 | 28458 ft | 439 kts | 292° |
| 2026-05-05 12:05 | 23.65292 | 57.17034 | 28959 ft | 441 kts | 292° |
| 2026-05-05 12:05 | 23.66578 | 57.13984 | 29466 ft | 444 kts | 292° |
| 2026-05-05 12:05 | 23.67863 | 57.10909 | 29923 ft | 447 kts | 292° |
| 2026-05-05 12:05 | 23.69148 | 57.07808 | 30272 ft | 451 kts | 291° |
| 2026-05-05 12:06 | 23.70439 | 57.04675 | 30673 ft | 453 kts | 291° |
| 2026-05-05 12:06 | 23.71730 | 57.01536 | 31075 ft | 455 kts | 291° |
| 2026-05-05 12:06 | 23.73029 | 56.98366 | 31472 ft | 457 kts | 291° |
| 2026-05-05 12:06 | 23.74331 | 56.95189 | 31751 ft | 461 kts | 291° |
| 2026-05-05 12:07 | 23.76962 | 56.88767 | 31828 ft | 464 kts | 291° |
| 2026-05-05 12:07 | 23.79597 | 56.82339 | 31836 ft | 464 kts | 291° |
| 2026-05-05 12:08 | 23.82231 | 56.75904 | 31832 ft | 463 kts | 291° |
| 2026-05-05 12:08 | 23.84849 | 56.69492 | 31839 ft | 463 kts | 291° |
| 2026-05-05 12:09 | 23.87496 | 56.63075 | 31838 ft | 463 kts | 294° |
| 2026-05-05 12:09 | 23.90206 | 56.56727 | 31842 ft | 463 kts | 294° |
| 2026-05-05 12:10 | 23.92872 | 56.50326 | 31846 ft | 463 kts | 293° |
| 2026-05-05 12:10 | 23.95497 | 56.43883 | 31844 ft | 462 kts | 292° |
| 2026-05-05 12:11 | 23.98099 | 56.37452 | 31839 ft | 462 kts | 292° |
| 2026-05-05 12:11 | 24.00692 | 56.31036 | 31838 ft | 461 kts | 292° |
| 2026-05-05 12:12 | 24.03289 | 56.24612 | 31837 ft | 462 kts | 292° |
| 2026-05-05 12:12 | 24.05885 | 56.18184 | 31834 ft | 462 kts | 292° |
| 2026-05-05 12:13 | 24.08475 | 56.11754 | 31829 ft | 462 kts | 292° |
| 2026-05-05 12:13 | 24.11045 | 56.05368 | 31828 ft | 462 kts | 292° |
| 2026-05-05 12:14 | 24.13629 | 55.98938 | 31812 ft | 462 kts | 292° |
| 2026-05-05 12:14 | 24.16212 | 55.92504 | 31805 ft | 462 kts | 292° |
| 2026-05-05 12:15 | 24.18793 | 55.86063 | 31788 ft | 462 kts | 292° |
| 2026-05-05 12:15 | 24.21271 | 55.79558 | 31781 ft | 461 kts | 287° |
| 2026-05-05 12:16 | 24.23058 | 55.72820 | 31774 ft | 461 kts | 284° |
| 2026-05-05 12:16 | 24.24703 | 55.66029 | 31775 ft | 461 kts | 284° |
| 2026-05-05 12:17 | 24.26321 | 55.59264 | 31776 ft | 461 kts | 284° |
| 2026-05-05 12:17 | 24.27709 | 55.52390 | 31773 ft | 460 kts | 281° |
| 2026-05-05 12:18 | 24.28953 | 55.45520 | 31775 ft | 460 kts | 281° |
| 2026-05-05 12:18 | 24.30222 | 55.38694 | 31771 ft | 460 kts | 281° |
| 2026-05-05 12:19 | 24.30911 | 55.33714 | 31767 ft | 460 kts | 276° |
| 2026-05-05 12:19 | 24.31655 | 55.26749 | 31760 ft | 460 kts | 276° |
| 2026-05-05 12:20 | 24.32375 | 55.19776 | 31756 ft | 460 kts | 276° |
| 2026-05-05 12:20 | 24.33083 | 55.12784 | 31751 ft | 460 kts | 276° |
| 2026-05-05 12:21 | 24.33781 | 55.05856 | 31743 ft | 460 kts | 276° |
| 2026-05-05 12:21 | 24.34482 | 54.98872 | 31742 ft | 460 kts | 276° |
| 2026-05-05 12:22 | 24.35171 | 54.91907 | 31733 ft | 461 kts | 276° |
| 2026-05-05 12:22 | 24.35861 | 54.84926 | 31727 ft | 459 kts | 275° |
| 2026-05-05 12:23 | 24.36545 | 54.77977 | 31721 ft | 458 kts | 275° |
| 2026-05-05 12:23 | 24.37225 | 54.71036 | 31719 ft | 458 kts | 275° |
| 2026-05-05 12:24 | 24.37903 | 54.64063 | 31722 ft | 464 kts | 275° |
| 2026-05-05 12:24 | 24.38248 | 54.60503 | 31721 ft | 475 kts | 275° |
| 2026-05-05 12:24 | 24.38601 | 54.56871 | 31720 ft | 484 kts | 275° |
| 2026-05-05 12:25 | 24.39537 | 54.49462 | 31737 ft | 493 kts | 281° |
| 2026-05-05 12:25 | 24.41090 | 54.42135 | 31719 ft | 493 kts | 282° |
| 2026-05-05 12:26 | 24.42455 | 54.36066 | 31747 ft | 493 kts | 283° |
| 2026-05-05 12:26 | 24.44367 | 54.27576 | 31746 ft | 493 kts | 283° |
| 2026-05-05 12:27 | 24.45998 | 54.20259 | 31741 ft | 491 kts | 282° |
| 2026-05-05 12:27 | 24.47610 | 54.12981 | 31760 ft | 491 kts | 282° |
| 2026-05-05 12:28 | 24.48955 | 54.06892 | 31744 ft | 491 kts | 282° |
| 2026-05-05 12:28 | 24.50551 | 53.99649 | 31758 ft | 491 kts | 282° |
| 2026-05-05 12:29 | 24.52152 | 53.92371 | 31747 ft | 491 kts | 282° |
| 2026-05-05 12:29 | 24.53861 | 53.85109 | 31744 ft | 491 kts | 284° |
| 2026-05-05 12:30 | 24.55726 | 53.77891 | 31752 ft | 491 kts | 284° |
| 2026-05-05 12:30 | 24.57577 | 53.70680 | 31751 ft | 490 kts | 284° |
| 2026-05-05 12:31 | 24.59396 | 53.63458 | 31754 ft | 489 kts | 283° |
| 2026-05-05 12:31 | 24.61185 | 53.56290 | 31756 ft | 489 kts | 283° |
| 2026-05-05 12:32 | 24.62979 | 53.49081 | 31750 ft | 489 kts | 283° |
| 2026-05-05 12:32 | 24.64774 | 53.41862 | 31754 ft | 489 kts | 283° |
| 2026-05-05 12:33 | 24.66559 | 53.34667 | 31753 ft | 489 kts | 283° |
| 2026-05-05 12:33 | 24.68348 | 53.27445 | 31765 ft | 489 kts | 283° |
| 2026-05-05 12:34 | 24.70129 | 53.20240 | 31754 ft | 487 kts | 283° |
| 2026-05-05 12:34 | 24.71890 | 53.13093 | 31755 ft | 487 kts | 283° |
| 2026-05-05 12:35 | 24.73659 | 53.05899 | 31733 ft | 486 kts | 283° |
| 2026-05-05 12:35 | 24.74539 | 53.02318 | 31471 ft | 485 kts | 283° |
| 2026-05-05 12:35 | 24.75414 | 52.98752 | 30819 ft | 481 kts | 283° |
| 2026-05-05 12:36 | 24.76275 | 52.95245 | 29551 ft | 469 kts | 283° |
| 2026-05-05 12:36 | 24.77126 | 52.91768 | 28518 ft | 467 kts | 283° |
| 2026-05-05 12:36 | 24.77961 | 52.88350 | 27924 ft | 461 kts | 283° |
| 2026-05-05 12:36 | 24.78788 | 52.84957 | 27243 ft | 456 kts | 283° |
| 2026-05-05 12:37 | 24.79606 | 52.81601 | 26562 ft | 453 kts | 284° |
| 2026-05-05 12:37 | 24.80420 | 52.78261 | 25882 ft | 450 kts | 284° |
| 2026-05-05 12:37 | 24.81225 | 52.74951 | 25198 ft | 447 kts | 284° |
| 2026-05-05 12:37 | 24.82027 | 52.71654 | 24521 ft | 445 kts | 284° |
| 2026-05-05 12:38 | 24.82815 | 52.68407 | 23840 ft | 443 kts | 284° |
| 2026-05-05 12:38 | 24.83608 | 52.65131 | 23141 ft | 442 kts | 284° |
| 2026-05-05 12:38 | 24.84399 | 52.61866 | 22377 ft | 438 kts | 284° |
| 2026-05-05 12:38 | 24.85181 | 52.58648 | 21711 ft | 433 kts | 284° |
| 2026-05-05 12:39 | 24.85956 | 52.55458 | 21035 ft | 429 kts | 284° |
| 2026-05-05 12:39 | 24.86719 | 52.52298 | 20352 ft | 425 kts | 284° |
| 2026-05-05 12:39 | 24.87477 | 52.49155 | 19660 ft | 422 kts | 284° |
| 2026-05-05 12:39 | 24.88229 | 52.46039 | 18967 ft | 420 kts | 284° |
| 2026-05-05 12:40 | 24.88978 | 52.42926 | 18264 ft | 417 kts | 284° |
| 2026-05-05 12:40 | 24.89474 | 52.39801 | 17558 ft | 414 kts | 274° |
| 2026-05-05 12:40 | 24.89561 | 52.36673 | 17301 ft | 408 kts | 271° |
| 2026-05-05 12:40 | 24.89606 | 52.33545 | 17020 ft | 409 kts | 271° |
| 2026-05-05 12:41 | 24.89654 | 52.30417 | 16711 ft | 409 kts | 271° |
| 2026-05-05 12:41 | 24.89697 | 52.27280 | 16373 ft | 408 kts | 271° |
| 2026-05-05 12:41 | 24.89570 | 52.24156 | 16082 ft | 406 kts | 266° |
| 2026-05-05 12:41 | 24.89344 | 52.21056 | 15790 ft | 404 kts | 266° |
| 2026-05-05 12:42 | 24.89112 | 52.17980 | 15487 ft | 403 kts | 266° |
| 2026-05-05 12:42 | 24.88884 | 52.14906 | 15186 ft | 401 kts | 266° |
| 2026-05-05 12:42 | 24.88659 | 52.11854 | 14878 ft | 400 kts | 267° |
| 2026-05-05 12:42 | 24.88434 | 52.08808 | 14572 ft | 399 kts | 267° |
| 2026-05-05 12:43 | 24.88211 | 52.05771 | 14281 ft | 397 kts | 267° |
| 2026-05-05 12:43 | 24.87990 | 52.02752 | 14019 ft | 395 kts | 267° |
| 2026-05-05 12:43 | 24.87766 | 51.99744 | 13868 ft | 394 kts | 267° |
| 2026-05-05 12:43 | 24.87543 | 51.96749 | 13630 ft | 393 kts | 267° |
| 2026-05-05 12:44 | 24.87319 | 51.93749 | 13316 ft | 392 kts | 267° |
| 2026-05-05 12:44 | 24.87103 | 51.90804 | 13021 ft | 390 kts | 267° |
| 2026-05-05 12:44 | 24.86879 | 51.87824 | 12729 ft | 389 kts | 267° |
| 2026-05-05 12:44 | 24.86654 | 51.84862 | 12438 ft | 387 kts | 267° |
| 2026-05-05 12:45 | 24.86431 | 51.81917 | 12149 ft | 385 kts | 267° |
| 2026-05-05 12:45 | 24.86208 | 51.78984 | 11856 ft | 383 kts | 267° |
| 2026-05-05 12:45 | 24.85986 | 51.76081 | 11627 ft | 376 kts | 267° |
| 2026-05-05 12:45 | 24.85772 | 51.73282 | 11399 ft | 360 kts | 267° |
| 2026-05-05 12:46 | 24.85565 | 51.70584 | 11160 ft | 345 kts | 267° |
| 2026-05-05 12:46 | 24.85370 | 51.68042 | 10907 ft | 319 kts | 267° |
| 2026-05-05 12:46 | 24.85190 | 51.65709 | 10658 ft | 295 kts | 267° |
| 2026-05-05 12:46 | 24.85021 | 51.63487 | 10436 ft | 290 kts | 268° |
| 2026-05-05 12:47 | 24.85066 | 51.61263 | 10188 ft | 289 kts | 283° |
| 2026-05-05 12:47 | 24.85854 | 51.59255 | 9908 ft | 286 kts | 307° |
| 2026-05-05 12:47 | 24.87219 | 51.57736 | 9553 ft | 283 kts | 320° |
| 2026-05-05 12:47 | 24.88687 | 51.56398 | 9247 ft | 283 kts | 320° |
| 2026-05-05 12:48 | 24.90204 | 51.55017 | 8944 ft | 283 kts | 320° |
| 2026-05-05 12:48 | 24.91715 | 51.53626 | 8649 ft | 282 kts | 320° |
| 2026-05-05 12:48 | 24.93214 | 51.52241 | 8356 ft | 281 kts | 319° |
| 2026-05-05 12:48 | 24.94720 | 51.50859 | 8059 ft | 282 kts | 321° |
| 2026-05-05 12:49 | 24.96405 | 51.49773 | 7763 ft | 281 kts | 336° |
| 2026-05-05 12:49 | 24.98219 | 51.48972 | 7471 ft | 282 kts | 338° |
| 2026-05-05 12:49 | 25.00041 | 51.48189 | 7173 ft | 279 kts | 338° |
| 2026-05-05 12:49 | 25.01842 | 51.47401 | 6882 ft | 278 kts | 338° |
| 2026-05-05 12:50 | 25.03627 | 51.46625 | 6633 ft | 272 kts | 339° |
| 2026-05-05 12:50 | 25.05441 | 51.46207 | 6433 ft | 262 kts | 1° |
| 2026-05-05 12:50 | 25.07133 | 51.46692 | 6248 ft | 253 kts | 28° |
| 2026-05-05 12:50 | 25.08389 | 51.48016 | 6030 ft | 246 kts | 59° |
| 2026-05-05 12:51 | 25.08962 | 51.49728 | 5857 ft | 239 kts | 74° |
| 2026-05-05 12:51 | 25.09157 | 51.51517 | 5634 ft | 234 kts | 95° |
| 2026-05-05 12:51 | 25.08641 | 51.53185 | 5468 ft | 228 kts | 117° |
| 2026-05-05 12:51 | 25.07828 | 51.54651 | 5289 ft | 220 kts | 122° |
| 2026-05-05 12:52 | 25.06991 | 51.56046 | 5014 ft | 216 kts | 122° |
| 2026-05-05 12:52 | 25.06149 | 51.57422 | 4637 ft | 218 kts | 122° |
| 2026-05-05 12:52 | 25.05286 | 51.58815 | 4237 ft | 220 kts | 123° |
| 2026-05-05 12:52 | 25.04413 | 51.60217 | 3838 ft | 223 kts | 123° |
| 2026-05-05 12:53 | 25.03653 | 51.61700 | 3436 ft | 221 kts | 106° |
| 2026-05-05 12:53 | 25.03619 | 51.63355 | 3111 ft | 216 kts | 72° |
| 2026-05-05 12:53 | 25.04410 | 51.64655 | 2993 ft | 198 kts | 36° |
| 2026-05-05 12:53 | 25.05600 | 51.65232 | 2984 ft | 179 kts | 14° |
| 2026-05-05 12:54 | 25.07530 | 51.66626 | 2997 ft | 171 kts | 52° |
| 2026-05-05 12:54 | 25.08203 | 51.67737 | 2999 ft | 173 kts | 55° |
| 2026-05-05 12:54 | 25.08837 | 51.68853 | 2993 ft | 173 kts | 54° |
| 2026-05-05 12:55 | 25.09784 | 51.69601 | 2996 ft | 170 kts | 9° |
| 2026-05-05 12:55 | 25.10920 | 51.69357 | 2998 ft | 166 kts | 335° |
| 2026-05-05 12:55 | 25.11929 | 51.68791 | 2796 ft | 161 kts | 333° |
| 2026-05-05 12:55 | 25.12936 | 51.68250 | 2525 ft | 160 kts | 336° |
| 2026-05-05 12:56 | 25.13944 | 51.67781 | 2314 ft | 154 kts | 340° |
| 2026-05-05 12:56 | 25.14918 | 51.67368 | 2113 ft | 146 kts | 340° |
| 2026-05-05 12:56 | 25.15827 | 51.66967 | 1924 ft | 136 kts | 340° |
| 2026-05-05 12:56 | 25.16683 | 51.66586 | 1774 ft | 132 kts | 340° |
| 2026-05-05 12:57 | 25.17539 | 51.66209 | 1603 ft | 132 kts | 339° |
| 2026-05-05 12:57 | 25.18398 | 51.65831 | 1434 ft | 134 kts | 339° |
| 2026-05-05 12:57 | 25.19262 | 51.65449 | 1265 ft | 133 kts | 339° |
| 2026-05-05 12:57 | 25.20114 | 51.65074 | 1107 ft | 132 kts | 340° |
| 2026-05-05 12:58 | 25.20968 | 51.64696 | 939 ft | 132 kts | 340° |
| 2026-05-05 12:58 | 25.21792 | 51.64346 | 769 ft | 130 kts | 341° |
| 2026-05-05 12:58 | 25.22674 | 51.63914 | 651 ft | 143 kts | 338° |
| 2026-05-05 12:58 | 25.23594 | 51.63511 | 468 ft | 138 kts | 344° |
| 2026-05-05 12:59 | 25.24456 | 51.63140 | 302 ft | 130 kts | 342° |
| 2026-05-05 12:59 | 25.25288 | 51.62785 | 137 ft | 128 kts | 342° |
| 2026-05-05 12:59 | 25.26104 | 51.62427 | 38 ft | 122 kts | 343° |
| 2026-05-05 13:00 | 25.27159 | 51.61969 | 32 ft | 30 kts | 338° |
| 2026-05-05 13:00 | 25.27334 | 51.61870 | 33 ft | 27 kts | 326° |
| 2026-05-05 13:01 | 25.27374 | 51.61674 | 35 ft | 12 kts | 159° |
| 2026-05-05 13:01 | 25.27288 | 51.61709 | 35 ft | 15 kts | 160° |
| 2026-05-05 13:01 | 25.27182 | 51.61753 | 34 ft | 18 kts | 160° |
| 2026-05-05 13:01 | 25.27096 | 51.61712 | 35 ft | 15 kts | 238° |
| 2026-05-05 13:02 | 25.27050 | 51.61597 | 36 ft | 18 kts | 248° |
| 2026-05-05 13:02 | 25.26998 | 51.61469 | 36 ft | 17 kts | 233° |
| 2026-05-05 13:02 | 25.26888 | 51.61397 | 36 ft | 20 kts | 202° |
| 2026-05-05 13:02 | 25.26755 | 51.61337 | 36 ft | 18 kts | 200° |
| 2026-05-05 13:03 | 25.26727 | 51.61327 | 36 ft | 0 kts | 195° |
| 2026-05-05 13:03 | 25.26724 | 51.61326 | 36 ft | 1 kts | 195° |
| 2026-05-05 13:03 | 25.26694 | 51.61308 | 36 ft | 8 kts | 222° |
| 2026-05-05 13:04 | 25.26669 | 51.61262 | 36 ft | 5 kts | 245° |
| 2026-05-05 13:04 | 25.26662 | 51.61246 | 36 ft | 2 kts | 246° |
| 2026-05-05 13:04 | 25.26658 | 51.61233 | 36 ft | 1 kts | 247° |
| 2026-05-05 13:04 | 25.26656 | 51.61227 | 36 ft | 0 kts | 247° |